sensor_id;sensor_type;location;lat;lon;timestamp;P1;durP1;ratioP1;P2;durP2;ratioP2
3068;SDS011;1545;51.728;8.796;2022-10-04T00:01:56;32.70;;;15.50;;
3068;SDS011;1545;51.728;8.796;2022-10-04T00:10:18;41.10;;;15.97;;
3068;SDS011;1545;51.728;8.796;2022-10-04T00:13:01;28.23;;;14.50;;
3068;SDS011;1545;51.728;8.796;2022-10-04T00:15:43;36.97;;;14.20;;
3068;SDS011;1545;51.728;8.796;2022-10-04T00:18:52;29.20;;;13.63;;
3068;SDS011;1545;51.728;8.796;2022-10-04T00:21:09;27.33;;;14.13;;
3068;SDS011;1545;51.728;8.796;2022-10-04T00:27:10;31.97;;;13.47;;
3068;SDS011;1545;51.728;8.796;2022-10-04T00:32:41;26.27;;;13.63;;
3068;SDS011;1545;51.728;8.796;2022-10-04T00:34:51;38.03;;;14.77;;
3068;SDS011;1545;51.728;8.796;2022-10-04T00:37:37;33.27;;;13.70;;
3068;SDS011;1545;51.728;8.796;2022-10-04T00:40:25;33.50;;;14.27;;
3068;SDS011;1545;51.728;8.796;2022-10-04T00:43:03;22.20;;;12.87;;
3068;SDS011;1545;51.728;8.796;2022-10-04T00:45:40;21.93;;;12.47;;
3068;SDS011;1545;51.728;8.796;2022-10-04T00:51:41;28.03;;;13.03;;
3068;SDS011;1545;51.728;8.796;2022-10-04T00:57:15;24.73;;;13.47;;
3068;SDS011;1545;51.728;8.796;2022-10-04T00:59:47;27.50;;;13.53;;
3068;SDS011;1545;51.728;8.796;2022-10-04T01:05:15;25.70;;;13.93;;
3068;SDS011;1545;51.728;8.796;2022-10-04T01:07:49;25.63;;;13.47;;
3068;SDS011;1545;51.728;8.796;2022-10-04T01:10:24;24.13;;;14.20;;
3068;SDS011;1545;51.728;8.796;2022-10-04T01:13:03;29.37;;;13.87;;
3068;SDS011;1545;51.728;8.796;2022-10-04T01:15:59;24.30;;;12.80;;
3068;SDS011;1545;51.728;8.796;2022-10-04T01:18:36;27.53;;;12.93;;
3068;SDS011;1545;51.728;8.796;2022-10-04T01:21:08;30.60;;;13.17;;
3068;SDS011;1545;51.728;8.796;2022-10-04T01:23:49;27.00;;;12.23;;
3068;SDS011;1545;51.728;8.796;2022-10-04T01:29:01;27.90;;;13.07;;
3068;SDS011;1545;51.728;8.796;2022-10-04T01:31:35;29.87;;;13.07;;
3068;SDS011;1545;51.728;8.796;2022-10-04T01:34:03;32.97;;;13.63;;
3068;SDS011;1545;51.728;8.796;2022-10-04T01:36:30;24.93;;;13.30;;
3068;SDS011;1545;51.728;8.796;2022-10-04T01:38:57;26.80;;;14.47;;
3068;SDS011;1545;51.728;8.796;2022-10-04T01:41:27;26.30;;;13.20;;
3068;SDS011;1545;51.728;8.796;2022-10-04T01:44:16;22.83;;;13.27;;
3068;SDS011;1545;51.728;8.796;2022-10-04T01:46:56;27.03;;;12.70;;
3068;SDS011;1545;51.728;8.796;2022-10-04T01:49:28;23.23;;;12.13;;
3068;SDS011;1545;51.728;8.796;2022-10-04T01:51:59;21.30;;;12.40;;
3068;SDS011;1545;51.728;8.796;2022-10-04T01:54:40;33.03;;;12.40;;
3068;SDS011;1545;51.728;8.796;2022-10-04T01:57:22;21.50;;;11.43;;
3068;SDS011;1545;51.728;8.796;2022-10-04T01:59:59;24.03;;;12.07;;
3068;SDS011;1545;51.728;8.796;2022-10-04T02:02:44;22.17;;;12.43;;
3068;SDS011;1545;51.728;8.796;2022-10-04T02:05:25;25.43;;;12.80;;
3068;SDS011;1545;51.728;8.796;2022-10-04T02:08:03;37.47;;;14.23;;
3068;SDS011;1545;51.728;8.796;2022-10-04T02:10:32;27.67;;;13.83;;
3068;SDS011;1545;51.728;8.796;2022-10-04T02:13:03;31.43;;;13.00;;
3068;SDS011;1545;51.728;8.796;2022-10-04T02:15:33;32.20;;;13.30;;
3068;SDS011;1545;51.728;8.796;2022-10-04T02:18:08;25.33;;;12.77;;
3068;SDS011;1545;51.728;8.796;2022-10-04T02:20:37;23.23;;;12.87;;
3068;SDS011;1545;51.728;8.796;2022-10-04T02:23:04;28.47;;;13.33;;
3068;SDS011;1545;51.728;8.796;2022-10-04T02:25:30;26.10;;;12.53;;
3068;SDS011;1545;51.728;8.796;2022-10-04T02:27:57;23.97;;;12.40;;
3068;SDS011;1545;51.728;8.796;2022-10-04T02:30:23;21.70;;;12.57;;
3068;SDS011;1545;51.728;8.796;2022-10-04T02:32:51;21.37;;;11.57;;
3068;SDS011;1545;51.728;8.796;2022-10-04T02:35:28;23.97;;;11.90;;
3068;SDS011;1545;51.728;8.796;2022-10-04T02:40:46;21.47;;;11.73;;
3068;SDS011;1545;51.728;8.796;2022-10-04T02:43:35;22.00;;;12.03;;
3068;SDS011;1545;51.728;8.796;2022-10-04T02:46:14;23.77;;;11.83;;
3068;SDS011;1545;51.728;8.796;2022-10-04T02:54:06;20.33;;;11.77;;
3068;SDS011;1545;51.728;8.796;2022-10-04T02:56:57;29.80;;;11.40;;
3068;SDS011;1545;51.728;8.796;2022-10-04T02:59:23;24.33;;;10.77;;
3068;SDS011;1545;51.728;8.796;2022-10-04T03:01:53;23.30;;;12.27;;
3068;SDS011;1545;51.728;8.796;2022-10-04T03:04:23;20.80;;;11.53;;
3068;SDS011;1545;51.728;8.796;2022-10-04T03:06:58;28.37;;;10.90;;
3068;SDS011;1545;51.728;8.796;2022-10-04T03:09:33;18.80;;;11.50;;
3068;SDS011;1545;51.728;8.796;2022-10-04T03:12:01;33.17;;;12.63;;
3068;SDS011;1545;51.728;8.796;2022-10-04T03:14:30;29.47;;;12.90;;
3068;SDS011;1545;51.728;8.796;2022-10-04T03:17:09;23.77;;;12.20;;
3068;SDS011;1545;51.728;8.796;2022-10-04T03:19:42;22.93;;;12.00;;
3068;SDS011;1545;51.728;8.796;2022-10-04T03:22:11;26.37;;;13.20;;
3068;SDS011;1545;51.728;8.796;2022-10-04T03:24:44;28.50;;;14.37;;
3068;SDS011;1545;51.728;8.796;2022-10-04T03:27:24;31.90;;;13.90;;
3068;SDS011;1545;51.728;8.796;2022-10-04T03:29:58;32.97;;;13.73;;
3068;SDS011;1545;51.728;8.796;2022-10-04T03:32:26;36.80;;;13.70;;
3068;SDS011;1545;51.728;8.796;2022-10-04T03:34:55;26.40;;;14.07;;
3068;SDS011;1545;51.728;8.796;2022-10-04T03:37:22;34.70;;;13.57;;
3068;SDS011;1545;51.728;8.796;2022-10-04T03:39:50;27.17;;;13.27;;
3068;SDS011;1545;51.728;8.796;2022-10-04T03:42:26;26.87;;;12.90;;
3068;SDS011;1545;51.728;8.796;2022-10-04T03:45:02;28.27;;;13.27;;
3068;SDS011;1545;51.728;8.796;2022-10-04T03:47:36;27.50;;;12.67;;
3068;SDS011;1545;51.728;8.796;2022-10-04T03:50:13;27.90;;;13.50;;
3068;SDS011;1545;51.728;8.796;2022-10-04T03:55:49;30.93;;;13.63;;
3068;SDS011;1545;51.728;8.796;2022-10-04T03:58:19;25.40;;;12.80;;
3068;SDS011;1545;51.728;8.796;2022-10-04T04:01:02;35.93;;;13.50;;
3068;SDS011;1545;51.728;8.796;2022-10-04T04:06:46;32.93;;;13.97;;
3068;SDS011;1545;51.728;8.796;2022-10-04T04:09:34;24.07;;;13.80;;
3068;SDS011;1545;51.728;8.796;2022-10-04T04:12:05;28.03;;;14.30;;
3068;SDS011;1545;51.728;8.796;2022-10-04T04:14:39;32.57;;;14.27;;
3068;SDS011;1545;51.728;8.796;2022-10-04T04:17:29;25.93;;;14.07;;
3068;SDS011;1545;51.728;8.796;2022-10-04T04:20:00;31.97;;;14.27;;
3068;SDS011;1545;51.728;8.796;2022-10-04T04:22:31;29.50;;;15.03;;
3068;SDS011;1545;51.728;8.796;2022-10-04T04:25:03;31.50;;;14.57;;
3068;SDS011;1545;51.728;8.796;2022-10-04T04:27:32;32.93;;;14.53;;
3068;SDS011;1545;51.728;8.796;2022-10-04T04:30:04;28.30;;;14.40;;
3068;SDS011;1545;51.728;8.796;2022-10-04T04:32:39;32.90;;;14.77;;
3068;SDS011;1545;51.728;8.796;2022-10-04T04:38:04;37.10;;;15.03;;
3068;SDS011;1545;51.728;8.796;2022-10-04T04:40:40;30.80;;;13.93;;
3068;SDS011;1545;51.728;8.796;2022-10-04T04:43:08;34.90;;;15.30;;
3068;SDS011;1545;51.728;8.796;2022-10-04T04:45:40;28.73;;;14.40;;
3068;SDS011;1545;51.728;8.796;2022-10-04T04:48:10;26.20;;;13.90;;
3068;SDS011;1545;51.728;8.796;2022-10-04T04:50:47;26.17;;;14.13;;
3068;SDS011;1545;51.728;8.796;2022-10-04T04:53:21;26.67;;;13.80;;
3068;SDS011;1545;51.728;8.796;2022-10-04T04:56:00;35.80;;;14.23;;
3068;SDS011;1545;51.728;8.796;2022-10-04T04:58:35;26.77;;;12.73;;
3068;SDS011;1545;51.728;8.796;2022-10-04T05:01:12;19.63;;;12.13;;
3068;SDS011;1545;51.728;8.796;2022-10-04T05:04:12;24.10;;;13.17;;
3068;SDS011;1545;51.728;8.796;2022-10-04T05:06:58;21.63;;;12.93;;
3068;SDS011;1545;51.728;8.796;2022-10-04T05:12:17;32.40;;;13.60;;
3068;SDS011;1545;51.728;8.796;2022-10-04T05:14:49;25.47;;;13.30;;
3068;SDS011;1545;51.728;8.796;2022-10-04T05:17:38;25.50;;;12.93;;
3068;SDS011;1545;51.728;8.796;2022-10-04T05:20:05;31.63;;;14.97;;
3068;SDS011;1545;51.728;8.796;2022-10-04T05:22:34;29.17;;;12.77;;
3068;SDS011;1545;51.728;8.796;2022-10-04T05:25:03;24.57;;;12.80;;
3068;SDS011;1545;51.728;8.796;2022-10-04T05:27:37;24.23;;;13.03;;
3068;SDS011;1545;51.728;8.796;2022-10-04T05:30:13;33.20;;;13.63;;
3068;SDS011;1545;51.728;8.796;2022-10-04T05:33:07;31.20;;;13.13;;
3068;SDS011;1545;51.728;8.796;2022-10-04T05:38:39;20.63;;;13.33;;
3068;SDS011;1545;51.728;8.796;2022-10-04T05:41:21;22.03;;;12.87;;
3068;SDS011;1545;51.728;8.796;2022-10-04T05:43:55;23.90;;;12.43;;
3068;SDS011;1545;51.728;8.796;2022-10-04T05:46:26;29.97;;;12.80;;
3068;SDS011;1545;51.728;8.796;2022-10-04T05:49:12;22.13;;;12.57;;
3068;SDS011;1545;51.728;8.796;2022-10-04T05:52:00;24.53;;;13.37;;
3068;SDS011;1545;51.728;8.796;2022-10-04T05:54:29;22.20;;;13.17;;
3068;SDS011;1545;51.728;8.796;2022-10-04T06:00:15;25.87;;;13.27;;
3068;SDS011;1545;51.728;8.796;2022-10-04T06:02:52;22.27;;;13.33;;
3068;SDS011;1545;51.728;8.796;2022-10-04T06:05:55;30.00;;;15.40;;
3068;SDS011;1545;51.728;8.796;2022-10-04T06:08:46;30.93;;;14.17;;
3068;SDS011;1545;51.728;8.796;2022-10-04T06:11:39;30.60;;;14.20;;
3068;SDS011;1545;51.728;8.796;2022-10-04T06:14:29;29.43;;;14.40;;
3068;SDS011;1545;51.728;8.796;2022-10-04T06:23:16;25.37;;;13.20;;
3068;SDS011;1545;51.728;8.796;2022-10-04T06:25:52;23.97;;;12.43;;
3068;SDS011;1545;51.728;8.796;2022-10-04T06:31:13;27.93;;;12.67;;
3068;SDS011;1545;51.728;8.796;2022-10-04T06:34:15;24.20;;;12.37;;
3068;SDS011;1545;51.728;8.796;2022-10-04T06:56:22;20.93;;;9.93;;
3068;SDS011;1545;51.728;8.796;2022-10-04T06:59:21;18.47;;;9.93;;
3068;SDS011;1545;51.728;8.796;2022-10-04T07:02:15;23.00;;;9.70;;
3068;SDS011;1545;51.728;8.796;2022-10-04T07:04:53;17.37;;;9.73;;
3068;SDS011;1545;51.728;8.796;2022-10-04T07:10:19;21.93;;;8.93;;
3068;SDS011;1545;51.728;8.796;2022-10-04T07:15:42;17.30;;;9.27;;
3068;SDS011;1545;51.728;8.796;2022-10-04T07:18:18;19.47;;;9.23;;
3068;SDS011;1545;51.728;8.796;2022-10-04T07:20:48;12.37;;;6.93;;
3068;SDS011;1545;51.728;8.796;2022-10-04T07:23:26;13.60;;;9.20;;
3068;SDS011;1545;51.728;8.796;2022-10-04T07:26:00;22.37;;;9.43;;
3068;SDS011;1545;51.728;8.796;2022-10-04T07:28:32;20.37;;;9.30;;
3068;SDS011;1545;51.728;8.796;2022-10-04T07:31:24;19.10;;;9.80;;
3068;SDS011;1545;51.728;8.796;2022-10-04T07:33:53;24.93;;;9.43;;
3068;SDS011;1545;51.728;8.796;2022-10-04T07:36:25;19.70;;;8.77;;
3068;SDS011;1545;51.728;8.796;2022-10-04T07:39:05;18.10;;;8.83;;
3068;SDS011;1545;51.728;8.796;2022-10-04T07:41:45;15.33;;;8.37;;
3068;SDS011;1545;51.728;8.796;2022-10-04T07:44:22;26.07;;;9.60;;
3068;SDS011;1545;51.728;8.796;2022-10-04T07:47:11;16.47;;;8.17;;
3068;SDS011;1545;51.728;8.796;2022-10-04T07:49:45;16.03;;;8.17;;
3068;SDS011;1545;51.728;8.796;2022-10-04T07:54:58;15.40;;;7.37;;
3068;SDS011;1545;51.728;8.796;2022-10-04T08:00:36;15.33;;;6.97;;
3068;SDS011;1545;51.728;8.796;2022-10-04T08:03:26;15.70;;;7.23;;
3068;SDS011;1545;51.728;8.796;2022-10-04T08:09:19;18.50;;;6.50;;
3068;SDS011;1545;51.728;8.796;2022-10-04T08:20:57;13.03;;;5.57;;
3068;SDS011;1545;51.728;8.796;2022-10-04T08:29:40;13.57;;;5.97;;
3068;SDS011;1545;51.728;8.796;2022-10-04T08:35:44;19.47;;;6.33;;
3068;SDS011;1545;51.728;8.796;2022-10-04T08:44:39;13.47;;;5.70;;
3068;SDS011;1545;51.728;8.796;2022-10-04T08:47:59;16.30;;;6.47;;
3068;SDS011;1545;51.728;8.796;2022-10-04T08:56:44;17.70;;;5.30;;
3068;SDS011;1545;51.728;8.796;2022-10-04T08:59:33;17.17;;;6.20;;
3068;SDS011;1545;51.728;8.796;2022-10-04T09:02:47;11.90;;;5.90;;
3068;SDS011;1545;51.728;8.796;2022-10-04T09:08:21;18.43;;;6.17;;
3068;SDS011;1545;51.728;8.796;2022-10-04T09:17:19;17.17;;;5.83;;
3068;SDS011;1545;51.728;8.796;2022-10-04T09:25:51;20.40;;;6.40;;
3068;SDS011;1545;51.728;8.796;2022-10-04T09:37:54;13.73;;;4.90;;
3068;SDS011;1545;51.728;8.796;2022-10-04T09:45:57;18.23;;;4.97;;
3068;SDS011;1545;51.728;8.796;2022-10-04T10:00:42;10.37;;;5.13;;
3068;SDS011;1545;51.728;8.796;2022-10-04T10:11:36;12.63;;;5.30;;
3068;SDS011;1545;51.728;8.796;2022-10-04T10:17:47;9.43;;;5.70;;
3068;SDS011;1545;51.728;8.796;2022-10-04T10:23:05;11.53;;;5.30;;
3068;SDS011;1545;51.728;8.796;2022-10-04T10:26:01;8.00;;;5.10;;
3068;SDS011;1545;51.728;8.796;2022-10-04T10:29:30;14.33;;;5.53;;
3068;SDS011;1545;51.728;8.796;2022-10-04T10:31:31;14.10;;;5.90;;
3068;SDS011;1545;51.728;8.796;2022-10-04T10:34:22;13.87;;;5.50;;
3068;SDS011;1545;51.728;8.796;2022-10-04T10:40:02;12.30;;;5.63;;
3068;SDS011;1545;51.728;8.796;2022-10-04T10:45:46;14.47;;;6.40;;
3068;SDS011;1545;51.728;8.796;2022-10-04T10:48:38;15.33;;;5.33;;
3068;SDS011;1545;51.728;8.796;2022-10-04T10:54:17;13.00;;;6.30;;
3068;SDS011;1545;51.728;8.796;2022-10-04T11:02:41;10.83;;;5.63;;
3068;SDS011;1545;51.728;8.796;2022-10-04T11:11:19;8.03;;;4.77;;
3068;SDS011;1545;51.728;8.796;2022-10-04T11:22:50;9.33;;;5.10;;
3068;SDS011;1545;51.728;8.796;2022-10-04T11:28:51;18.20;;;5.23;;
3068;SDS011;1545;51.728;8.796;2022-10-04T11:43:21;13.77;;;5.57;;
3068;SDS011;1545;51.728;8.796;2022-10-04T11:49:05;9.23;;;5.27;;
3068;SDS011;1545;51.728;8.796;2022-10-04T12:00:08;9.40;;;5.33;;
3068;SDS011;1545;51.728;8.796;2022-10-04T12:08:31;11.97;;;5.50;;
3068;SDS011;1545;51.728;8.796;2022-10-04T12:11:33;17.50;;;6.17;;
3068;SDS011;1545;51.728;8.796;2022-10-04T12:14:24;14.47;;;5.80;;
3068;SDS011;1545;51.728;8.796;2022-10-04T12:27:39;11.70;;;5.43;;
3068;SDS011;1545;51.728;8.796;2022-10-04T12:33:23;12.93;;;5.57;;
3068;SDS011;1545;51.728;8.796;2022-10-04T12:44:31;13.80;;;5.83;;
3068;SDS011;1545;51.728;8.796;2022-10-04T12:47:42;13.97;;;5.73;;
3068;SDS011;1545;51.728;8.796;2022-10-04T12:50:05;11.27;;;5.70;;
3068;SDS011;1545;51.728;8.796;2022-10-04T12:53:02;12.13;;;6.20;;
3068;SDS011;1545;51.728;8.796;2022-10-04T13:04:28;12.00;;;6.17;;
3068;SDS011;1545;51.728;8.796;2022-10-04T13:06:58;11.40;;;5.70;;
3068;SDS011;1545;51.728;8.796;2022-10-04T13:17:41;16.57;;;6.00;;
3068;SDS011;1545;51.728;8.796;2022-10-04T13:28:15;12.63;;;6.40;;
3068;SDS011;1545;51.728;8.796;2022-10-04T13:33:56;14.67;;;6.10;;
3068;SDS011;1545;51.728;8.796;2022-10-04T13:39:33;11.00;;;5.60;;
3068;SDS011;1545;51.728;8.796;2022-10-04T13:45:03;11.97;;;5.90;;
3068;SDS011;1545;51.728;8.796;2022-10-04T13:53:54;14.33;;;5.50;;
3068;SDS011;1545;51.728;8.796;2022-10-04T13:56:46;13.43;;;5.77;;
3068;SDS011;1545;51.728;8.796;2022-10-04T14:13:58;15.20;;;5.57;;
3068;SDS011;1545;51.728;8.796;2022-10-04T14:17:17;12.17;;;5.87;;
3068;SDS011;1545;51.728;8.796;2022-10-04T14:27:55;10.93;;;5.07;;
3068;SDS011;1545;51.728;8.796;2022-10-04T14:39:19;11.27;;;5.37;;
3068;SDS011;1545;51.728;8.796;2022-10-04T14:50:28;24.53;;;6.17;;
3068;SDS011;1545;51.728;8.796;2022-10-04T14:53:10;18.53;;;5.70;;
3068;SDS011;1545;51.728;8.796;2022-10-04T14:55:59;15.27;;;6.10;;
3068;SDS011;1545;51.728;8.796;2022-10-04T15:01:31;14.50;;;5.17;;
3068;SDS011;1545;51.728;8.796;2022-10-04T15:06:47;8.47;;;5.43;;
3068;SDS011;1545;51.728;8.796;2022-10-04T15:09:38;9.63;;;5.80;;
3068;SDS011;1545;51.728;8.796;2022-10-04T15:17:55;10.97;;;5.70;;
3068;SDS011;1545;51.728;8.796;2022-10-04T15:23:28;13.83;;;5.60;;
3068;SDS011;1545;51.728;8.796;2022-10-04T15:26:04;19.20;;;6.10;;
3068;SDS011;1545;51.728;8.796;2022-10-04T15:43:04;12.70;;;5.97;;
3068;SDS011;1545;51.728;8.796;2022-10-04T15:54:09;10.63;;;6.13;;
3068;SDS011;1545;51.728;8.796;2022-10-04T15:56:59;15.23;;;6.20;;
3068;SDS011;1545;51.728;8.796;2022-10-04T15:59:47;12.90;;;6.87;;
3068;SDS011;1545;51.728;8.796;2022-10-04T16:02:44;12.10;;;6.50;;
3068;SDS011;1545;51.728;8.796;2022-10-04T16:05:58;11.93;;;6.70;;
3068;SDS011;1545;51.728;8.796;2022-10-04T16:11:15;13.87;;;6.50;;
3068;SDS011;1545;51.728;8.796;2022-10-04T16:16:34;15.30;;;6.77;;
3068;SDS011;1545;51.728;8.796;2022-10-04T16:22:10;13.83;;;7.13;;
3068;SDS011;1545;51.728;8.796;2022-10-04T16:24:47;13.00;;;7.27;;
3068;SDS011;1545;51.728;8.796;2022-10-04T16:30:18;25.67;;;7.37;;
3068;SDS011;1545;51.728;8.796;2022-10-04T16:35:28;16.70;;;7.53;;
3068;SDS011;1545;51.728;8.796;2022-10-04T16:38:18;21.80;;;9.30;;
3068;SDS011;1545;51.728;8.796;2022-10-04T16:56:41;16.37;;;8.10;;
3068;SDS011;1545;51.728;8.796;2022-10-04T17:02:12;15.37;;;7.97;;
3068;SDS011;1545;51.728;8.796;2022-10-04T17:11:00;19.90;;;8.07;;
3068;SDS011;1545;51.728;8.796;2022-10-04T17:16:35;16.53;;;7.73;;
3068;SDS011;1545;51.728;8.796;2022-10-04T17:30:13;15.30;;;8.00;;
3068;SDS011;1545;51.728;8.796;2022-10-04T17:38:39;15.67;;;8.10;;
3068;SDS011;1545;51.728;8.796;2022-10-04T17:44:44;21.40;;;9.00;;
3068;SDS011;1545;51.728;8.796;2022-10-04T17:47:33;14.23;;;8.37;;
3068;SDS011;1545;51.728;8.796;2022-10-04T17:50:28;22.50;;;8.70;;
3068;SDS011;1545;51.728;8.796;2022-10-04T17:53:22;20.87;;;8.00;;
3068;SDS011;1545;51.728;8.796;2022-10-04T17:56:12;15.90;;;8.70;;
3068;SDS011;1545;51.728;8.796;2022-10-04T17:58:50;13.73;;;7.57;;
3068;SDS011;1545;51.728;8.796;2022-10-04T18:01:29;15.43;;;8.20;;
3068;SDS011;1545;51.728;8.796;2022-10-04T18:09:27;19.27;;;8.67;;
3068;SDS011;1545;51.728;8.796;2022-10-04T18:12:12;18.40;;;8.40;;
3068;SDS011;1545;51.728;8.796;2022-10-04T18:16:06;16.80;;;8.60;;
3068;SDS011;1545;51.728;8.796;2022-10-04T18:20:57;18.23;;;9.00;;
3068;SDS011;1545;51.728;8.796;2022-10-04T18:23:35;15.30;;;7.83;;
3068;SDS011;1545;51.728;8.796;2022-10-04T18:26:16;17.17;;;8.87;;
3068;SDS011;1545;51.728;8.796;2022-10-04T18:28:49;24.13;;;8.87;;
3068;SDS011;1545;51.728;8.796;2022-10-04T18:31:34;14.50;;;8.30;;
3068;SDS011;1545;51.728;8.796;2022-10-04T18:34:15;14.97;;;8.37;;
3068;SDS011;1545;51.728;8.796;2022-10-04T18:37:05;14.30;;;8.23;;
3068;SDS011;1545;51.728;8.796;2022-10-04T18:39:47;14.13;;;8.03;;
3068;SDS011;1545;51.728;8.796;2022-10-04T18:44:58;13.60;;;7.77;;
3068;SDS011;1545;51.728;8.796;2022-10-04T18:47:29;11.53;;;7.73;;
3068;SDS011;1545;51.728;8.796;2022-10-04T18:50:04;14.63;;;8.43;;
3068;SDS011;1545;51.728;8.796;2022-10-04T18:55:43;13.67;;;7.90;;
3068;SDS011;1545;51.728;8.796;2022-10-04T19:04:29;17.83;;;7.67;;
3068;SDS011;1545;51.728;8.796;2022-10-04T19:07:02;18.63;;;8.27;;
3068;SDS011;1545;51.728;8.796;2022-10-04T19:12:09;18.77;;;7.93;;
3068;SDS011;1545;51.728;8.796;2022-10-04T19:14:46;17.63;;;8.00;;
3068;SDS011;1545;51.728;8.796;2022-10-04T19:25:56;17.27;;;7.73;;
3068;SDS011;1545;51.728;8.796;2022-10-04T19:28:26;15.43;;;7.57;;
3068;SDS011;1545;51.728;8.796;2022-10-04T19:39:31;19.37;;;7.80;;
3068;SDS011;1545;51.728;8.796;2022-10-04T19:42:13;15.53;;;8.03;;
3068;SDS011;1545;51.728;8.796;2022-10-04T19:44:50;11.57;;;7.27;;
3068;SDS011;1545;51.728;8.796;2022-10-04T19:47:51;11.83;;;7.13;;
3068;SDS011;1545;51.728;8.796;2022-10-04T19:50:33;11.13;;;7.40;;
3068;SDS011;1545;51.728;8.796;2022-10-04T19:53:39;14.67;;;7.27;;
3068;SDS011;1545;51.728;8.796;2022-10-04T19:56:10;14.97;;;7.97;;
3068;SDS011;1545;51.728;8.796;2022-10-04T19:58:44;14.97;;;8.10;;
3068;SDS011;1545;51.728;8.796;2022-10-04T20:01:19;13.20;;;7.47;;
3068;SDS011;1545;51.728;8.796;2022-10-04T20:03:48;20.17;;;7.57;;
3068;SDS011;1545;51.728;8.796;2022-10-04T20:06:35;20.40;;;8.03;;
3068;SDS011;1545;51.728;8.796;2022-10-04T20:11:50;17.60;;;7.83;;
3068;SDS011;1545;51.728;8.796;2022-10-04T20:19:35;15.07;;;6.57;;
3068;SDS011;1545;51.728;8.796;2022-10-04T20:27:06;18.33;;;7.17;;
3068;SDS011;1545;51.728;8.796;2022-10-04T20:35:01;15.03;;;7.20;;
3068;SDS011;1545;51.728;8.796;2022-10-04T20:40:14;17.63;;;7.00;;
3068;SDS011;1545;51.728;8.796;2022-10-04T20:45:48;14.63;;;7.70;;
3068;SDS011;1545;51.728;8.796;2022-10-04T20:48:20;14.27;;;7.30;;
3068;SDS011;1545;51.728;8.796;2022-10-04T20:50:47;14.07;;;7.27;;
3068;SDS011;1545;51.728;8.796;2022-10-04T20:53:17;15.43;;;6.87;;
3068;SDS011;1545;51.728;8.796;2022-10-04T20:56:06;15.57;;;6.80;;
3068;SDS011;1545;51.728;8.796;2022-10-04T20:58:35;15.20;;;6.90;;
3068;SDS011;1545;51.728;8.796;2022-10-04T21:01:03;25.67;;;7.43;;
3068;SDS011;1545;51.728;8.796;2022-10-04T21:07:05;17.67;;;8.17;;
3068;SDS011;1545;51.728;8.796;2022-10-04T21:09:38;15.83;;;8.57;;
3068;SDS011;1545;51.728;8.796;2022-10-04T21:12:25;14.37;;;7.90;;
3068;SDS011;1545;51.728;8.796;2022-10-04T21:15:25;18.23;;;8.27;;
3068;SDS011;1545;51.728;8.796;2022-10-04T21:17:58;17.53;;;8.47;;
3068;SDS011;1545;51.728;8.796;2022-10-04T21:23:24;12.57;;;8.10;;
3068;SDS011;1545;51.728;8.796;2022-10-04T21:28:47;18.40;;;8.30;;
3068;SDS011;1545;51.728;8.796;2022-10-04T21:31:23;15.67;;;8.40;;
3068;SDS011;1545;51.728;8.796;2022-10-04T21:33:50;21.17;;;8.37;;
3068;SDS011;1545;51.728;8.796;2022-10-04T21:36:15;15.90;;;8.83;;
3068;SDS011;1545;51.728;8.796;2022-10-04T21:38:46;19.87;;;10.57;;
3068;SDS011;1545;51.728;8.796;2022-10-04T21:41:11;16.33;;;9.37;;
3068;SDS011;1545;51.728;8.796;2022-10-04T21:43:37;19.07;;;10.03;;
3068;SDS011;1545;51.728;8.796;2022-10-04T21:46:06;20.43;;;9.33;;
3068;SDS011;1545;51.728;8.796;2022-10-04T21:48:32;18.73;;;10.20;;
3068;SDS011;1545;51.728;8.796;2022-10-04T21:50:59;18.53;;;10.03;;
3068;SDS011;1545;51.728;8.796;2022-10-04T21:53:25;16.80;;;9.47;;
3068;SDS011;1545;51.728;8.796;2022-10-04T21:55:53;16.93;;;9.83;;
3068;SDS011;1545;51.728;8.796;2022-10-04T21:58:24;23.47;;;9.97;;
3068;SDS011;1545;51.728;8.796;2022-10-04T22:00:51;17.23;;;9.77;;
3068;SDS011;1545;51.728;8.796;2022-10-04T22:03:19;23.53;;;8.97;;
3068;SDS011;1545;51.728;8.796;2022-10-04T22:05:45;16.03;;;9.03;;
3068;SDS011;1545;51.728;8.796;2022-10-04T22:08:10;28.13;;;9.40;;
3068;SDS011;1545;51.728;8.796;2022-10-04T22:10:38;15.87;;;9.60;;
3068;SDS011;1545;51.728;8.796;2022-10-04T22:13:07;14.67;;;8.80;;
3068;SDS011;1545;51.728;8.796;2022-10-04T22:15:32;20.47;;;8.87;;
3068;SDS011;1545;51.728;8.796;2022-10-04T22:17:58;20.27;;;8.97;;
3068;SDS011;1545;51.728;8.796;2022-10-04T22:20:24;19.63;;;9.67;;
3068;SDS011;1545;51.728;8.796;2022-10-04T22:22:51;17.20;;;8.93;;
3068;SDS011;1545;51.728;8.796;2022-10-04T22:25:18;19.23;;;9.20;;
3068;SDS011;1545;51.728;8.796;2022-10-04T22:27:46;15.07;;;8.83;;
3068;SDS011;1545;51.728;8.796;2022-10-04T22:30:25;18.90;;;9.00;;
3068;SDS011;1545;51.728;8.796;2022-10-04T22:32:54;19.27;;;9.00;;
3068;SDS011;1545;51.728;8.796;2022-10-04T22:35:27;14.47;;;8.07;;
3068;SDS011;1545;51.728;8.796;2022-10-04T22:37:54;16.33;;;8.90;;
3068;SDS011;1545;51.728;8.796;2022-10-04T22:40:22;13.80;;;8.20;;
3068;SDS011;1545;51.728;8.796;2022-10-04T22:42:53;14.90;;;8.47;;
3068;SDS011;1545;51.728;8.796;2022-10-04T22:45:26;23.17;;;11.57;;
3068;SDS011;1545;51.728;8.796;2022-10-04T22:48:10;17.50;;;8.93;;
3068;SDS011;1545;51.728;8.796;2022-10-04T22:50:39;16.20;;;8.77;;
3068;SDS011;1545;51.728;8.796;2022-10-04T22:53:16;15.50;;;9.43;;
3068;SDS011;1545;51.728;8.796;2022-10-04T22:55:45;21.27;;;9.37;;
3068;SDS011;1545;51.728;8.796;2022-10-04T22:58:12;23.57;;;9.60;;
3068;SDS011;1545;51.728;8.796;2022-10-04T23:00:41;18.37;;;9.00;;
3068;SDS011;1545;51.728;8.796;2022-10-04T23:03:17;14.83;;;9.27;;
3068;SDS011;1545;51.728;8.796;2022-10-04T23:05:51;20.83;;;9.43;;
3068;SDS011;1545;51.728;8.796;2022-10-04T23:08:16;22.90;;;9.57;;
3068;SDS011;1545;51.728;8.796;2022-10-04T23:10:43;23.20;;;10.20;;
3068;SDS011;1545;51.728;8.796;2022-10-04T23:13:09;18.60;;;9.93;;
3068;SDS011;1545;51.728;8.796;2022-10-04T23:15:36;17.97;;;10.40;;
3068;SDS011;1545;51.728;8.796;2022-10-04T23:18:04;17.13;;;10.10;;
3068;SDS011;1545;51.728;8.796;2022-10-04T23:20:39;17.40;;;10.27;;
3068;SDS011;1545;51.728;8.796;2022-10-04T23:23:04;20.47;;;11.10;;
3068;SDS011;1545;51.728;8.796;2022-10-04T23:25:42;22.57;;;11.20;;
3068;SDS011;1545;51.728;8.796;2022-10-04T23:28:11;18.33;;;10.23;;
3068;SDS011;1545;51.728;8.796;2022-10-04T23:30:41;26.03;;;11.27;;
3068;SDS011;1545;51.728;8.796;2022-10-04T23:33:16;22.60;;;10.00;;
3068;SDS011;1545;51.728;8.796;2022-10-04T23:35:45;18.63;;;10.77;;
3068;SDS011;1545;51.728;8.796;2022-10-04T23:38:13;24.07;;;11.00;;
3068;SDS011;1545;51.728;8.796;2022-10-04T23:40:40;16.30;;;10.30;;
3068;SDS011;1545;51.728;8.796;2022-10-04T23:43:07;24.23;;;10.37;;
3068;SDS011;1545;51.728;8.796;2022-10-04T23:45:53;18.40;;;9.80;;
3068;SDS011;1545;51.728;8.796;2022-10-04T23:48:25;19.93;;;9.90;;
3068;SDS011;1545;51.728;8.796;2022-10-04T23:50:53;17.53;;;9.73;;
3068;SDS011;1545;51.728;8.796;2022-10-04T23:53:25;16.90;;;9.83;;
3068;SDS011;1545;51.728;8.796;2022-10-04T23:55:55;16.97;;;9.47;;
3068;SDS011;1545;51.728;8.796;2022-10-04T23:58:31;16.27;;;9.63;;
